sensor_id;sensor_type;location;lat;lon;timestamp;P1;durP1;ratioP1;P2;durP2;ratioP2
3000;SDS011;1510;51.072;6.678;2023-09-12T00:00:05;605.70;;;569.17;;
3000;SDS011;1510;51.072;6.678;2023-09-12T00:02:33;605.00;;;568.10;;
3000;SDS011;1510;51.072;6.678;2023-09-12T00:04:59;568.47;;;535.27;;
3000;SDS011;1510;51.072;6.678;2023-09-12T00:07:26;526.47;;;496.17;;
3000;SDS011;1510;51.072;6.678;2023-09-12T00:09:55;466.00;;;440.77;;
3000;SDS011;1510;51.072;6.678;2023-09-12T00:12:22;413.90;;;393.43;;
3000;SDS011;1510;51.072;6.678;2023-09-12T00:14:50;400.43;;;380.83;;
3000;SDS011;1510;51.072;6.678;2023-09-12T00:17:17;395.00;;;375.33;;
3000;SDS011;1510;51.072;6.678;2023-09-12T00:19:44;390.53;;;371.50;;
3000;SDS011;1510;51.072;6.678;2023-09-12T00:22:10;401.30;;;381.43;;
3000;SDS011;1510;51.072;6.678;2023-09-12T00:24:37;354.50;;;338.30;;
3000;SDS011;1510;51.072;6.678;2023-09-12T00:27:05;409.97;;;389.63;;
3000;SDS011;1510;51.072;6.678;2023-09-12T00:29:32;429.80;;;407.50;;
3000;SDS011;1510;51.072;6.678;2023-09-12T00:31:59;440.37;;;417.93;;
3000;SDS011;1510;51.072;6.678;2023-09-12T00:34:26;433.13;;;411.23;;
3000;SDS011;1510;51.072;6.678;2023-09-12T00:36:53;416.50;;;395.90;;
3000;SDS011;1510;51.072;6.678;2023-09-12T00:39:20;505.17;;;477.97;;
3000;SDS011;1510;51.072;6.678;2023-09-12T00:41:46;541.03;;;510.83;;
3000;SDS011;1510;51.072;6.678;2023-09-12T00:44:15;576.80;;;543.90;;
3000;SDS011;1510;51.072;6.678;2023-09-12T00:46:42;624.90;;;588.50;;
3000;SDS011;1510;51.072;6.678;2023-09-12T00:49:10;649.43;;;611.00;;
3000;SDS011;1510;51.072;6.678;2023-09-12T00:51:39;691.07;;;649.57;;
3000;SDS011;1510;51.072;6.678;2023-09-12T00:54:06;691.67;;;650.63;;
3000;SDS011;1510;51.072;6.678;2023-09-12T00:56:34;746.60;;;700.77;;
3000;SDS011;1510;51.072;6.678;2023-09-12T00:59:01;758.80;;;711.67;;
3000;SDS011;1510;51.072;6.678;2023-09-12T01:01:30;737.43;;;691.97;;
3000;SDS011;1510;51.072;6.678;2023-09-12T01:03:58;801.53;;;751.87;;
3000;SDS011;1510;51.072;6.678;2023-09-12T01:06:27;842.47;;;790.63;;
3000;SDS011;1510;51.072;6.678;2023-09-12T01:08:56;867.80;;;814.53;;
3000;SDS011;1510;51.072;6.678;2023-09-12T01:11:23;862.23;;;808.40;;
3000;SDS011;1510;51.072;6.678;2023-09-12T01:13:50;874.60;;;819.90;;
3000;SDS011;1510;51.072;6.678;2023-09-12T01:16:17;863.60;;;809.27;;
3000;SDS011;1510;51.072;6.678;2023-09-12T01:18:45;845.30;;;792.53;;
3000;SDS011;1510;51.072;6.678;2023-09-12T01:24:16;822.37;;;768.97;;
3000;SDS011;1510;51.072;6.678;2023-09-12T01:27:21;805.70;;;754.17;;
3000;SDS011;1510;51.072;6.678;2023-09-12T01:29:54;819.40;;;768.20;;
3000;SDS011;1510;51.072;6.678;2023-09-12T01:32:23;779.57;;;731.97;;
3000;SDS011;1510;51.072;6.678;2023-09-12T01:34:50;730.70;;;687.20;;
3000;SDS011;1510;51.072;6.678;2023-09-12T01:37:17;678.20;;;639.03;;
3000;SDS011;1510;51.072;6.678;2023-09-12T01:39:44;650.33;;;612.63;;
3000;SDS011;1510;51.072;6.678;2023-09-12T01:42:11;665.87;;;627.50;;
3000;SDS011;1510;51.072;6.678;2023-09-12T01:44:44;727.27;;;682.37;;
3000;SDS011;1510;51.072;6.678;2023-09-12T01:47:12;757.80;;;711.40;;
3000;SDS011;1510;51.072;6.678;2023-09-12T01:49:40;776.10;;;728.90;;
3000;SDS011;1510;51.072;6.678;2023-09-12T01:52:09;794.67;;;747.20;;
3000;SDS011;1510;51.072;6.678;2023-09-12T01:54:36;818.50;;;767.60;;
3000;SDS011;1510;51.072;6.678;2023-09-12T01:57:04;836.30;;;783.13;;
3000;SDS011;1510;51.072;6.678;2023-09-12T01:59:31;834.40;;;782.13;;
3000;SDS011;1510;51.072;6.678;2023-09-12T02:02:00;843.70;;;790.10;;
3000;SDS011;1510;51.072;6.678;2023-09-12T02:04:27;862.10;;;807.80;;
3000;SDS011;1510;51.072;6.678;2023-09-12T02:06:54;860.80;;;805.63;;
3000;SDS011;1510;51.072;6.678;2023-09-12T02:09:20;902.47;;;840.47;;
3000;SDS011;1510;51.072;6.678;2023-09-12T02:11:48;917.97;;;854.33;;
3000;SDS011;1510;51.072;6.678;2023-09-12T02:14:16;930.93;;;865.73;;
3000;SDS011;1510;51.072;6.678;2023-09-12T02:16:43;937.50;;;870.53;;
3000;SDS011;1510;51.072;6.678;2023-09-12T02:19:11;943.60;;;876.90;;
3000;SDS011;1510;51.072;6.678;2023-09-12T02:21:38;945.83;;;879.23;;
3000;SDS011;1510;51.072;6.678;2023-09-12T02:24:05;938.47;;;872.97;;
3000;SDS011;1510;51.072;6.678;2023-09-12T02:26:32;952.57;;;884.70;;
3000;SDS011;1510;51.072;6.678;2023-09-12T02:29:01;959.50;;;892.13;;
3000;SDS011;1510;51.072;6.678;2023-09-12T02:31:28;963.50;;;894.73;;
3000;SDS011;1510;51.072;6.678;2023-09-12T02:33:55;969.93;;;900.73;;
3000;SDS011;1510;51.072;6.678;2023-09-12T02:36:23;970.57;;;899.93;;
3000;SDS011;1510;51.072;6.678;2023-09-12T02:38:50;981.50;;;908.87;;
3000;SDS011;1510;51.072;6.678;2023-09-12T02:41:17;971.93;;;899.90;;
3000;SDS011;1510;51.072;6.678;2023-09-12T02:43:44;970.10;;;898.60;;
3000;SDS011;1510;51.072;6.678;2023-09-12T02:46:10;965.57;;;894.30;;
3000;SDS011;1510;51.072;6.678;2023-09-12T02:48:37;968.47;;;897.07;;
3000;SDS011;1510;51.072;6.678;2023-09-12T02:51:04;964.67;;;894.03;;
3000;SDS011;1510;51.072;6.678;2023-09-12T02:53:32;966.57;;;893.57;;
3000;SDS011;1510;51.072;6.678;2023-09-12T02:55:59;970.97;;;894.03;;
3000;SDS011;1510;51.072;6.678;2023-09-12T02:58:26;977.97;;;903.23;;
3000;SDS011;1510;51.072;6.678;2023-09-12T03:00:53;972.30;;;899.00;;
3000;SDS011;1510;51.072;6.678;2023-09-12T03:03:20;973.47;;;898.77;;
3000;SDS011;1510;51.072;6.678;2023-09-12T03:05:47;985.70;;;907.60;;
3000;SDS011;1510;51.072;6.678;2023-09-12T03:08:14;975.73;;;896.63;;
3000;SDS011;1510;51.072;6.678;2023-09-12T03:10:42;976.57;;;897.47;;
3000;SDS011;1510;51.072;6.678;2023-09-12T03:13:11;967.43;;;890.43;;
3000;SDS011;1510;51.072;6.678;2023-09-12T03:15:38;956.63;;;880.33;;
3000;SDS011;1510;51.072;6.678;2023-09-12T03:18:07;970.47;;;893.63;;
3000;SDS011;1510;51.072;6.678;2023-09-12T03:20:37;971.73;;;890.73;;
3000;SDS011;1510;51.072;6.678;2023-09-12T03:23:05;960.60;;;881.10;;
3000;SDS011;1510;51.072;6.678;2023-09-12T03:25:34;943.73;;;866.07;;
3000;SDS011;1510;51.072;6.678;2023-09-12T03:28:04;956.33;;;878.03;;
3000;SDS011;1510;51.072;6.678;2023-09-12T03:30:32;953.50;;;873.50;;
3000;SDS011;1510;51.072;6.678;2023-09-12T03:33:00;962.07;;;879.67;;
3000;SDS011;1510;51.072;6.678;2023-09-12T03:35:27;948.43;;;865.77;;
3000;SDS011;1510;51.072;6.678;2023-09-12T03:37:55;947.97;;;865.27;;
3000;SDS011;1510;51.072;6.678;2023-09-12T03:40:21;938.57;;;856.03;;
3000;SDS011;1510;51.072;6.678;2023-09-12T03:42:48;941.80;;;857.50;;
3000;SDS011;1510;51.072;6.678;2023-09-12T03:45:17;926.57;;;841.20;;
3000;SDS011;1510;51.072;6.678;2023-09-12T03:47:43;914.27;;;830.40;;
3000;SDS011;1510;51.072;6.678;2023-09-12T03:50:11;936.90;;;853.77;;
3000;SDS011;1510;51.072;6.678;2023-09-12T03:52:39;926.53;;;845.80;;
3000;SDS011;1510;51.072;6.678;2023-09-12T03:55:06;930.87;;;849.77;;
3000;SDS011;1510;51.072;6.678;2023-09-12T03:57:33;932.03;;;851.70;;
3000;SDS011;1510;51.072;6.678;2023-09-12T04:00:00;931.20;;;853.27;;
3000;SDS011;1510;51.072;6.678;2023-09-12T04:02:32;919.30;;;842.70;;
3000;SDS011;1510;51.072;6.678;2023-09-12T04:04:59;904.67;;;829.97;;
3000;SDS011;1510;51.072;6.678;2023-09-12T04:07:25;919.77;;;845.90;;
3000;SDS011;1510;51.072;6.678;2023-09-12T04:09:52;919.07;;;846.47;;
3000;SDS011;1510;51.072;6.678;2023-09-12T04:12:19;917.43;;;844.93;;
3000;SDS011;1510;51.072;6.678;2023-09-12T04:14:46;914.77;;;844.80;;
3000;SDS011;1510;51.072;6.678;2023-09-12T04:17:15;903.30;;;835.17;;
3000;SDS011;1510;51.072;6.678;2023-09-12T04:19:43;884.20;;;817.33;;
3000;SDS011;1510;51.072;6.678;2023-09-12T04:22:10;875.03;;;808.63;;
3000;SDS011;1510;51.072;6.678;2023-09-12T04:24:36;877.83;;;811.30;;
3000;SDS011;1510;51.072;6.678;2023-09-12T04:27:04;870.50;;;805.63;;
3000;SDS011;1510;51.072;6.678;2023-09-12T04:29:31;878.50;;;813.90;;
3000;SDS011;1510;51.072;6.678;2023-09-12T04:32:00;892.43;;;825.87;;
3000;SDS011;1510;51.072;6.678;2023-09-12T04:34:28;890.43;;;826.17;;
3000;SDS011;1510;51.072;6.678;2023-09-12T04:36:56;871.80;;;806.80;;
3000;SDS011;1510;51.072;6.678;2023-09-12T04:39:23;860.77;;;800.67;;
3000;SDS011;1510;51.072;6.678;2023-09-12T04:41:50;836.83;;;777.87;;
3000;SDS011;1510;51.072;6.678;2023-09-12T04:44:17;854.13;;;792.67;;
3000;SDS011;1510;51.072;6.678;2023-09-12T04:46:44;844.43;;;781.37;;
3000;SDS011;1510;51.072;6.678;2023-09-12T04:49:11;864.00;;;798.87;;
3000;SDS011;1510;51.072;6.678;2023-09-12T04:51:38;863.70;;;797.83;;
3000;SDS011;1510;51.072;6.678;2023-09-12T04:54:06;867.33;;;800.83;;
3000;SDS011;1510;51.072;6.678;2023-09-12T04:56:33;867.03;;;799.07;;
3000;SDS011;1510;51.072;6.678;2023-09-12T04:58:59;915.17;;;841.53;;
3000;SDS011;1510;51.072;6.678;2023-09-12T05:01:26;901.33;;;825.40;;
3000;SDS011;1510;51.072;6.678;2023-09-12T05:03:53;901.23;;;823.03;;
3000;SDS011;1510;51.072;6.678;2023-09-12T05:06:20;895.07;;;815.10;;
3000;SDS011;1510;51.072;6.678;2023-09-12T05:08:47;889.23;;;809.00;;
3000;SDS011;1510;51.072;6.678;2023-09-12T05:11:15;891.33;;;810.93;;
3000;SDS011;1510;51.072;6.678;2023-09-12T05:13:43;890.83;;;809.67;;
3000;SDS011;1510;51.072;6.678;2023-09-12T05:16:09;891.07;;;811.57;;
3000;SDS011;1510;51.072;6.678;2023-09-12T05:18:36;896.20;;;817.30;;
3000;SDS011;1510;51.072;6.678;2023-09-12T05:21:03;890.47;;;812.40;;
3000;SDS011;1510;51.072;6.678;2023-09-12T05:23:30;889.97;;;813.33;;
3000;SDS011;1510;51.072;6.678;2023-09-12T05:25:57;879.93;;;804.73;;
3000;SDS011;1510;51.072;6.678;2023-09-12T05:28:25;876.30;;;801.50;;
3000;SDS011;1510;51.072;6.678;2023-09-12T05:30:52;883.83;;;810.73;;
3000;SDS011;1510;51.072;6.678;2023-09-12T05:33:19;879.23;;;810.73;;
3000;SDS011;1510;51.072;6.678;2023-09-12T05:35:46;860.20;;;796.03;;
3000;SDS011;1510;51.072;6.678;2023-09-12T05:38:12;876.63;;;812.43;;
3000;SDS011;1510;51.072;6.678;2023-09-12T05:40:39;846.83;;;789.97;;
3000;SDS011;1510;51.072;6.678;2023-09-12T05:43:06;771.60;;;718.43;;
3000;SDS011;1510;51.072;6.678;2023-09-12T05:45:34;459.30;;;430.60;;
3000;SDS011;1510;51.072;6.678;2023-09-12T05:48:01;289.30;;;273.70;;
3000;SDS011;1510;51.072;6.678;2023-09-12T05:50:28;357.43;;;340.83;;
3000;SDS011;1510;51.072;6.678;2023-09-12T05:52:55;382.80;;;365.53;;
3000;SDS011;1510;51.072;6.678;2023-09-12T05:55:22;502.53;;;477.63;;
3000;SDS011;1510;51.072;6.678;2023-09-12T05:57:49;679.60;;;643.33;;
3000;SDS011;1510;51.072;6.678;2023-09-12T06:00:17;897.63;;;838.07;;
3000;SDS011;1510;51.072;6.678;2023-09-12T06:02:45;889.13;;;828.87;;
3000;SDS011;1510;51.072;6.678;2023-09-12T06:05:12;1026.43;;;954.73;;
3000;SDS011;1510;51.072;6.678;2023-09-12T06:07:39;1036.03;;;959.50;;
3000;SDS011;1510;51.072;6.678;2023-09-12T06:10:07;1012.40;;;939.80;;
3000;SDS011;1510;51.072;6.678;2023-09-12T06:12:34;1023.43;;;949.63;;
3000;SDS011;1510;51.072;6.678;2023-09-12T06:15:02;1004.93;;;938.23;;
3000;SDS011;1510;51.072;6.678;2023-09-12T06:17:29;1068.30;;;991.60;;
3000;SDS011;1510;51.072;6.678;2023-09-12T06:19:57;1120.60;;;999.90;;
3000;SDS011;1510;51.072;6.678;2023-09-12T06:22:25;1079.33;;;999.90;;
3000;SDS011;1510;51.072;6.678;2023-09-12T06:24:51;1016.23;;;951.00;;
3000;SDS011;1510;51.072;6.678;2023-09-12T06:27:19;1043.80;;;973.53;;
3000;SDS011;1510;51.072;6.678;2023-09-12T06:29:46;1059.40;;;987.00;;
3000;SDS011;1510;51.072;6.678;2023-09-12T06:32:13;1049.37;;;978.27;;
3000;SDS011;1510;51.072;6.678;2023-09-12T06:34:40;1031.40;;;961.97;;
3000;SDS011;1510;51.072;6.678;2023-09-12T06:37:08;1023.97;;;954.07;;
3000;SDS011;1510;51.072;6.678;2023-09-12T06:39:35;1017.80;;;950.50;;
3000;SDS011;1510;51.072;6.678;2023-09-12T06:42:02;1019.07;;;951.57;;
3000;SDS011;1510;51.072;6.678;2023-09-12T06:44:29;1040.17;;;968.37;;
3000;SDS011;1510;51.072;6.678;2023-09-12T06:46:56;1025.20;;;954.63;;
3000;SDS011;1510;51.072;6.678;2023-09-12T06:49:23;1059.37;;;983.37;;
3000;SDS011;1510;51.072;6.678;2023-09-12T06:51:49;1040.93;;;968.13;;
3000;SDS011;1510;51.072;6.678;2023-09-12T06:54:18;968.43;;;905.23;;
3000;SDS011;1510;51.072;6.678;2023-09-12T06:56:44;932.63;;;872.93;;
3000;SDS011;1510;51.072;6.678;2023-09-12T06:59:11;896.53;;;839.83;;
3000;SDS011;1510;51.072;6.678;2023-09-12T07:01:38;860.60;;;806.93;;
3000;SDS011;1510;51.072;6.678;2023-09-12T07:04:05;904.87;;;846.07;;
3000;SDS011;1510;51.072;6.678;2023-09-12T07:06:32;939.00;;;874.83;;
3000;SDS011;1510;51.072;6.678;2023-09-12T07:08:59;795.63;;;746.13;;
3000;SDS011;1510;51.072;6.678;2023-09-12T07:11:27;749.83;;;706.13;;
3000;SDS011;1510;51.072;6.678;2023-09-12T07:13:54;698.80;;;662.33;;
3000;SDS011;1510;51.072;6.678;2023-09-12T07:16:20;603.60;;;577.43;;
3000;SDS011;1510;51.072;6.678;2023-09-12T07:18:47;611.80;;;584.23;;
3000;SDS011;1510;51.072;6.678;2023-09-12T07:21:15;565.53;;;541.63;;
3000;SDS011;1510;51.072;6.678;2023-09-12T07:23:42;557.93;;;534.60;;
3000;SDS011;1510;51.072;6.678;2023-09-12T07:26:11;501.07;;;481.10;;
3000;SDS011;1510;51.072;6.678;2023-09-12T07:28:40;527.83;;;505.02;;
3000;SDS011;1510;51.072;6.678;2023-09-12T07:31:07;436.33;;;419.73;;
3000;SDS011;1510;51.072;6.678;2023-09-12T07:33:34;558.07;;;535.07;;
3000;SDS011;1510;51.072;6.678;2023-09-12T07:36:01;403.80;;;388.67;;
3000;SDS011;1510;51.072;6.678;2023-09-12T07:38:28;521.87;;;501.40;;
3000;SDS011;1510;51.072;6.678;2023-09-12T07:40:56;412.50;;;397.13;;
3000;SDS011;1510;51.072;6.678;2023-09-12T07:43:24;250.80;;;242.33;;
3000;SDS011;1510;51.072;6.678;2023-09-12T07:45:55;302.90;;;292.60;;
3000;SDS011;1510;51.072;6.678;2023-09-12T07:48:22;254.40;;;245.87;;
3000;SDS011;1510;51.072;6.678;2023-09-12T07:50:49;112.07;;;107.63;;
3000;SDS011;1510;51.072;6.678;2023-09-12T07:53:16;77.97;;;74.87;;
3000;SDS011;1510;51.072;6.678;2023-09-12T07:55:43;97.60;;;94.03;;
3000;SDS011;1510;51.072;6.678;2023-09-12T07:58:11;168.43;;;162.33;;
3000;SDS011;1510;51.072;6.678;2023-09-12T08:00:39;82.80;;;79.27;;
3000;SDS011;1510;51.072;6.678;2023-09-12T08:03:07;116.40;;;111.90;;
3000;SDS011;1510;51.072;6.678;2023-09-12T08:05:34;59.03;;;56.50;;
3000;SDS011;1510;51.072;6.678;2023-09-12T08:08:01;39.53;;;37.03;;
3000;SDS011;1510;51.072;6.678;2023-09-12T08:10:28;60.30;;;56.90;;
3000;SDS011;1510;51.072;6.678;2023-09-12T08:12:55;25.87;;;23.90;;
3000;SDS011;1510;51.072;6.678;2023-09-12T08:15:22;41.90;;;39.53;;
3000;SDS011;1510;51.072;6.678;2023-09-12T08:17:49;35.03;;;32.43;;
3000;SDS011;1510;51.072;6.678;2023-09-12T08:20:19;19.43;;;17.73;;
3000;SDS011;1510;51.072;6.678;2023-09-12T08:22:46;19.60;;;17.90;;
3000;SDS011;1510;51.072;6.678;2023-09-12T08:25:13;16.00;;;14.30;;
3000;SDS011;1510;51.072;6.678;2023-09-12T08:27:40;17.23;;;14.73;;
3000;SDS011;1510;51.072;6.678;2023-09-12T08:30:09;17.97;;;12.40;;
3000;SDS011;1510;51.072;6.678;2023-09-12T08:32:37;15.53;;;13.53;;
3000;SDS011;1510;51.072;6.678;2023-09-12T08:35:08;14.60;;;13.10;;
3000;SDS011;1510;51.072;6.678;2023-09-12T08:37:37;14.30;;;12.80;;
3000;SDS011;1510;51.072;6.678;2023-09-12T08:40:04;14.93;;;12.33;;
3000;SDS011;1510;51.072;6.678;2023-09-12T08:42:33;18.50;;;12.20;;
3000;SDS011;1510;51.072;6.678;2023-09-12T08:45:08;14.87;;;10.83;;
3000;SDS011;1510;51.072;6.678;2023-09-12T08:47:39;10.87;;;7.70;;
3000;SDS011;1510;51.072;6.678;2023-09-12T08:50:07;8.77;;;4.73;;
3000;SDS011;1510;51.072;6.678;2023-09-12T08:52:39;6.80;;;4.23;;
3000;SDS011;1510;51.072;6.678;2023-09-12T08:55:06;9.37;;;5.70;;
3000;SDS011;1510;51.072;6.678;2023-09-12T08:57:35;7.83;;;6.27;;
3000;SDS011;1510;51.072;6.678;2023-09-12T09:00:04;10.20;;;6.60;;
3000;SDS011;1510;51.072;6.678;2023-09-12T09:02:34;8.97;;;6.50;;
3000;SDS011;1510;51.072;6.678;2023-09-12T09:05:03;12.20;;;7.23;;
3000;SDS011;1510;51.072;6.678;2023-09-12T09:07:32;10.00;;;7.07;;
3000;SDS011;1510;51.072;6.678;2023-09-12T09:10:02;10.80;;;7.10;;
3000;SDS011;1510;51.072;6.678;2023-09-12T09:12:30;13.37;;;6.23;;
3000;SDS011;1510;51.072;6.678;2023-09-12T09:14:57;10.80;;;6.53;;
3000;SDS011;1510;51.072;6.678;2023-09-12T09:17:25;10.07;;;4.83;;
3000;SDS011;1510;51.072;6.678;2023-09-12T09:19:52;7.60;;;4.07;;
3000;SDS011;1510;51.072;6.678;2023-09-12T09:22:20;8.70;;;5.57;;
3000;SDS011;1510;51.072;6.678;2023-09-12T09:24:48;8.40;;;4.80;;
3000;SDS011;1510;51.072;6.678;2023-09-12T09:27:32;5.97;;;2.20;;
3000;SDS011;1510;51.072;6.678;2023-09-12T09:29:59;8.70;;;2.03;;
3000;SDS011;1510;51.072;6.678;2023-09-12T09:32:28;5.23;;;2.10;;
3000;SDS011;1510;51.072;6.678;2023-09-12T09:34:55;5.77;;;2.47;;
3000;SDS011;1510;51.072;6.678;2023-09-12T09:37:22;6.83;;;3.03;;
3000;SDS011;1510;51.072;6.678;2023-09-12T09:39:50;5.90;;;2.50;;
3000;SDS011;1510;51.072;6.678;2023-09-12T09:42:18;8.43;;;4.23;;
3000;SDS011;1510;51.072;6.678;2023-09-12T09:44:46;7.50;;;3.70;;
3000;SDS011;1510;51.072;6.678;2023-09-12T09:47:14;6.97;;;3.20;;
3000;SDS011;1510;51.072;6.678;2023-09-12T09:49:44;9.00;;;4.90;;
3000;SDS011;1510;51.072;6.678;2023-09-12T09:52:12;11.53;;;5.60;;
3000;SDS011;1510;51.072;6.678;2023-09-12T09:54:42;11.90;;;6.80;;
3000;SDS011;1510;51.072;6.678;2023-09-12T09:57:09;12.20;;;8.40;;
3000;SDS011;1510;51.072;6.678;2023-09-12T09:59:36;13.50;;;9.80;;
3000;SDS011;1510;51.072;6.678;2023-09-12T10:02:05;11.30;;;7.50;;
3000;SDS011;1510;51.072;6.678;2023-09-12T10:04:38;14.83;;;8.60;;
3000;SDS011;1510;51.072;6.678;2023-09-12T10:07:06;16.37;;;10.10;;
3000;SDS011;1510;51.072;6.678;2023-09-12T10:09:33;12.87;;;9.60;;
3000;SDS011;1510;51.072;6.678;2023-09-12T10:12:01;12.13;;;6.83;;
3000;SDS011;1510;51.072;6.678;2023-09-12T10:14:28;15.37;;;8.83;;
3000;SDS011;1510;51.072;6.678;2023-09-12T10:16:57;14.50;;;10.03;;
3000;SDS011;1510;51.072;6.678;2023-09-12T10:19:30;12.10;;;6.77;;
3000;SDS011;1510;51.072;6.678;2023-09-12T10:22:03;15.10;;;9.03;;
3000;SDS011;1510;51.072;6.678;2023-09-12T10:24:35;15.83;;;11.70;;
3000;SDS011;1510;51.072;6.678;2023-09-12T10:27:03;14.07;;;8.77;;
3000;SDS011;1510;51.072;6.678;2023-09-12T10:29:32;14.60;;;11.00;;
3000;SDS011;1510;51.072;6.678;2023-09-12T10:32:00;20.30;;;15.10;;
3000;SDS011;1510;51.072;6.678;2023-09-12T10:34:27;17.80;;;11.93;;
3000;SDS011;1510;51.072;6.678;2023-09-12T10:36:55;13.37;;;9.70;;
3000;SDS011;1510;51.072;6.678;2023-09-12T10:39:24;21.20;;;12.20;;
3000;SDS011;1510;51.072;6.678;2023-09-12T10:41:54;16.17;;;11.40;;
3000;SDS011;1510;51.072;6.678;2023-09-12T10:44:21;20.30;;;15.33;;
3000;SDS011;1510;51.072;6.678;2023-09-12T10:46:49;21.20;;;14.87;;
3000;SDS011;1510;51.072;6.678;2023-09-12T10:49:18;19.90;;;13.70;;
3000;SDS011;1510;51.072;6.678;2023-09-12T10:51:46;17.93;;;11.60;;
3000;SDS011;1510;51.072;6.678;2023-09-12T10:54:15;12.20;;;6.20;;
3000;SDS011;1510;51.072;6.678;2023-09-12T10:57:01;16.77;;;12.70;;
3000;SDS011;1510;51.072;6.678;2023-09-12T10:59:29;18.27;;;11.50;;
3000;SDS011;1510;51.072;6.678;2023-09-12T11:04:54;15.47;;;11.07;;
3000;SDS011;1510;51.072;6.678;2023-09-12T11:07:31;14.60;;;10.10;;
3000;SDS011;1510;51.072;6.678;2023-09-12T11:10:19;16.43;;;11.70;;
3000;SDS011;1510;51.072;6.678;2023-09-12T11:12:48;14.30;;;10.30;;
3000;SDS011;1510;51.072;6.678;2023-09-12T11:15:15;14.73;;;11.87;;
3000;SDS011;1510;51.072;6.678;2023-09-12T11:17:43;13.57;;;9.80;;
3000;SDS011;1510;51.072;6.678;2023-09-12T11:20:10;14.03;;;10.80;;
3000;SDS011;1510;51.072;6.678;2023-09-12T11:22:39;15.60;;;10.33;;
3000;SDS011;1510;51.072;6.678;2023-09-12T11:25:15;13.00;;;9.03;;
3000;SDS011;1510;51.072;6.678;2023-09-12T11:28:02;13.37;;;8.53;;
3000;SDS011;1510;51.072;6.678;2023-09-12T11:30:30;10.87;;;8.37;;
3000;SDS011;1510;51.072;6.678;2023-09-12T11:32:57;12.57;;;9.63;;
3000;SDS011;1510;51.072;6.678;2023-09-12T11:35:25;13.03;;;8.80;;
3000;SDS011;1510;51.072;6.678;2023-09-12T11:37:54;12.83;;;9.47;;
3000;SDS011;1510;51.072;6.678;2023-09-12T11:40:22;13.53;;;9.90;;
3000;SDS011;1510;51.072;6.678;2023-09-12T11:42:52;11.87;;;8.87;;
3000;SDS011;1510;51.072;6.678;2023-09-12T11:45:19;14.10;;;8.67;;
3000;SDS011;1510;51.072;6.678;2023-09-12T11:47:47;15.00;;;10.13;;
3000;SDS011;1510;51.072;6.678;2023-09-12T11:50:29;12.80;;;8.97;;
3000;SDS011;1510;51.072;6.678;2023-09-12T11:52:58;11.53;;;8.10;;
3000;SDS011;1510;51.072;6.678;2023-09-12T11:55:26;10.57;;;7.90;;
3000;SDS011;1510;51.072;6.678;2023-09-12T11:57:56;18.07;;;9.60;;
3000;SDS011;1510;51.072;6.678;2023-09-12T12:00:23;12.40;;;8.87;;
3000;SDS011;1510;51.072;6.678;2023-09-12T12:02:51;16.43;;;10.70;;
3000;SDS011;1510;51.072;6.678;2023-09-12T12:05:18;16.00;;;10.60;;
3000;SDS011;1510;51.072;6.678;2023-09-12T12:07:46;14.83;;;10.80;;
3000;SDS011;1510;51.072;6.678;2023-09-12T12:10:13;15.03;;;11.83;;
3000;SDS011;1510;51.072;6.678;2023-09-12T12:12:41;16.17;;;13.40;;
3000;SDS011;1510;51.072;6.678;2023-09-12T12:15:12;14.90;;;12.73;;
3000;SDS011;1510;51.072;6.678;2023-09-12T12:17:40;13.50;;;10.80;;
3000;SDS011;1510;51.072;6.678;2023-09-12T12:20:08;17.00;;;13.10;;
3000;SDS011;1510;51.072;6.678;2023-09-12T12:22:36;17.97;;;13.70;;
3000;SDS011;1510;51.072;6.678;2023-09-12T12:25:06;15.97;;;11.80;;
3000;SDS011;1510;51.072;6.678;2023-09-12T12:27:35;16.93;;;13.23;;
3000;SDS011;1510;51.072;6.678;2023-09-12T12:30:03;14.93;;;10.53;;
3000;SDS011;1510;51.072;6.678;2023-09-12T12:32:33;15.93;;;13.70;;
3000;SDS011;1510;51.072;6.678;2023-09-12T12:35:00;10.43;;;7.87;;
3000;SDS011;1510;51.072;6.678;2023-09-12T12:37:28;12.93;;;10.53;;
3000;SDS011;1510;51.072;6.678;2023-09-12T12:39:56;12.98;;;10.25;;
3000;SDS011;1510;51.072;6.678;2023-09-12T12:42:23;14.80;;;10.97;;
3000;SDS011;1510;51.072;6.678;2023-09-12T12:44:52;11.67;;;8.80;;
3000;SDS011;1510;51.072;6.678;2023-09-12T12:47:20;10.33;;;7.73;;
3000;SDS011;1510;51.072;6.678;2023-09-12T12:49:52;8.73;;;7.73;;
3000;SDS011;1510;51.072;6.678;2023-09-12T12:52:22;18.35;;;8.27;;
3000;SDS011;1510;51.072;6.678;2023-09-12T12:54:50;11.93;;;8.73;;
3000;SDS011;1510;51.072;6.678;2023-09-12T12:57:19;15.77;;;10.90;;
3000;SDS011;1510;51.072;6.678;2023-09-12T12:59:46;11.03;;;8.10;;
3000;SDS011;1510;51.072;6.678;2023-09-12T13:02:14;11.67;;;9.53;;
3000;SDS011;1510;51.072;6.678;2023-09-12T13:04:41;13.70;;;8.77;;
3000;SDS011;1510;51.072;6.678;2023-09-12T13:07:09;13.27;;;10.80;;
3000;SDS011;1510;51.072;6.678;2023-09-12T13:09:36;14.70;;;11.70;;
3000;SDS011;1510;51.072;6.678;2023-09-12T13:12:04;14.67;;;11.80;;
3000;SDS011;1510;51.072;6.678;2023-09-12T13:14:33;12.70;;;9.73;;
3000;SDS011;1510;51.072;6.678;2023-09-12T13:17:00;17.50;;;13.70;;
3000;SDS011;1510;51.072;6.678;2023-09-12T13:19:28;18.30;;;13.80;;
3000;SDS011;1510;51.072;6.678;2023-09-12T13:21:54;18.47;;;14.50;;
3000;SDS011;1510;51.072;6.678;2023-09-12T13:24:23;20.17;;;15.17;;
3000;SDS011;1510;51.072;6.678;2023-09-12T13:26:50;19.47;;;15.27;;
3000;SDS011;1510;51.072;6.678;2023-09-12T13:29:17;15.97;;;13.00;;
3000;SDS011;1510;51.072;6.678;2023-09-12T13:31:44;20.30;;;12.23;;
3000;SDS011;1510;51.072;6.678;2023-09-12T13:34:11;12.20;;;10.03;;
3000;SDS011;1510;51.072;6.678;2023-09-12T13:36:38;15.47;;;11.20;;
3000;SDS011;1510;51.072;6.678;2023-09-12T13:39:05;14.70;;;11.60;;
3000;SDS011;1510;51.072;6.678;2023-09-12T13:41:34;14.37;;;10.50;;
3000;SDS011;1510;51.072;6.678;2023-09-12T13:44:01;11.90;;;9.77;;
3000;SDS011;1510;51.072;6.678;2023-09-12T13:46:28;11.43;;;8.63;;
3000;SDS011;1510;51.072;6.678;2023-09-12T13:48:55;12.17;;;10.67;;
3000;SDS011;1510;51.072;6.678;2023-09-12T13:51:25;13.97;;;9.30;;
3000;SDS011;1510;51.072;6.678;2023-09-12T13:53:52;17.03;;;11.20;;
3000;SDS011;1510;51.072;6.678;2023-09-12T13:56:19;14.20;;;10.30;;
3000;SDS011;1510;51.072;6.678;2023-09-12T13:58:47;14.33;;;9.13;;
3000;SDS011;1510;51.072;6.678;2023-09-12T14:01:14;12.30;;;10.10;;
3000;SDS011;1510;51.072;6.678;2023-09-12T14:03:42;16.70;;;12.87;;
3000;SDS011;1510;51.072;6.678;2023-09-12T14:06:08;17.35;;;11.40;;
3000;SDS011;1510;51.072;6.678;2023-09-12T14:08:35;16.83;;;10.10;;
3000;SDS011;1510;51.072;6.678;2023-09-12T14:11:02;14.27;;;10.60;;
3000;SDS011;1510;51.072;6.678;2023-09-12T14:13:29;15.37;;;9.60;;
3000;SDS011;1510;51.072;6.678;2023-09-12T14:15:57;15.80;;;10.83;;
3000;SDS011;1510;51.072;6.678;2023-09-12T14:18:24;14.43;;;11.52;;
3000;SDS011;1510;51.072;6.678;2023-09-12T14:20:51;13.77;;;10.47;;
3000;SDS011;1510;51.072;6.678;2023-09-12T14:23:18;11.30;;;9.10;;
3000;SDS011;1510;51.072;6.678;2023-09-12T14:25:45;11.97;;;7.60;;
3000;SDS011;1510;51.072;6.678;2023-09-12T14:28:12;14.40;;;10.53;;
3000;SDS011;1510;51.072;6.678;2023-09-12T14:30:39;11.60;;;9.50;;
3000;SDS011;1510;51.072;6.678;2023-09-12T14:33:11;12.63;;;8.70;;
3000;SDS011;1510;51.072;6.678;2023-09-12T14:35:38;13.37;;;8.00;;
3000;SDS011;1510;51.072;6.678;2023-09-12T14:38:06;13.87;;;8.50;;
3000;SDS011;1510;51.072;6.678;2023-09-12T14:40:33;18.27;;;10.40;;
3000;SDS011;1510;51.072;6.678;2023-09-12T14:43:00;9.27;;;6.90;;
3000;SDS011;1510;51.072;6.678;2023-09-12T14:45:27;12.00;;;7.77;;